sensor_id;sensor_type;location;lat;lon;timestamp;P1;durP1;ratioP1;P2;durP2;ratioP2
12812;SDS011;6471;50.932;6.934;2022-10-13T00:02:15;5.50;;;4.50;;
12812;SDS011;6471;50.932;6.934;2022-10-13T00:04:41;5.57;;;4.27;;
12812;SDS011;6471;50.932;6.934;2022-10-13T00:07:07;5.93;;;4.57;;
12812;SDS011;6471;50.932;6.934;2022-10-13T00:09:33;7.27;;;4.70;;
12812;SDS011;6471;50.932;6.934;2022-10-13T00:11:59;6.90;;;5.10;;
12812;SDS011;6471;50.932;6.934;2022-10-13T00:14:25;6.67;;;5.00;;
12812;SDS011;6471;50.932;6.934;2022-10-13T00:16:51;6.20;;;4.80;;
12812;SDS011;6471;50.932;6.934;2022-10-13T00:19:17;6.10;;;4.77;;
12812;SDS011;6471;50.932;6.934;2022-10-13T00:21:43;5.97;;;4.40;;
12812;SDS011;6471;50.932;6.934;2022-10-13T00:24:09;6.03;;;4.83;;
12812;SDS011;6471;50.932;6.934;2022-10-13T00:26:36;5.37;;;4.40;;
12812;SDS011;6471;50.932;6.934;2022-10-13T00:29:02;5.73;;;4.40;;
12812;SDS011;6471;50.932;6.934;2022-10-13T00:31:28;5.90;;;4.57;;
12812;SDS011;6471;50.932;6.934;2022-10-13T00:33:56;7.00;;;4.50;;
12812;SDS011;6471;50.932;6.934;2022-10-13T00:36:22;6.20;;;4.30;;
12812;SDS011;6471;50.932;6.934;2022-10-13T00:38:49;6.17;;;4.30;;
12812;SDS011;6471;50.932;6.934;2022-10-13T00:41:15;6.03;;;4.77;;
12812;SDS011;6471;50.932;6.934;2022-10-13T00:43:52;5.53;;;4.67;;
12812;SDS011;6471;50.932;6.934;2022-10-13T00:46:18;5.67;;;4.60;;
12812;SDS011;6471;50.932;6.934;2022-10-13T00:48:44;7.67;;;5.10;;
12812;SDS011;6471;50.932;6.934;2022-10-13T00:51:12;6.13;;;4.77;;
12812;SDS011;6471;50.932;6.934;2022-10-13T00:53:39;6.37;;;4.77;;
12812;SDS011;6471;50.932;6.934;2022-10-13T00:56:06;6.27;;;4.93;;
12812;SDS011;6471;50.932;6.934;2022-10-13T00:58:34;7.03;;;4.80;;
12812;SDS011;6471;50.932;6.934;2022-10-13T01:01:01;5.97;;;4.67;;
12812;SDS011;6471;50.932;6.934;2022-10-13T01:03:28;6.70;;;4.43;;
12812;SDS011;6471;50.932;6.934;2022-10-13T01:05:54;5.83;;;4.60;;
12812;SDS011;6471;50.932;6.934;2022-10-13T01:08:21;5.80;;;4.53;;
12812;SDS011;6471;50.932;6.934;2022-10-13T01:13:33;6.87;;;4.90;;
12812;SDS011;6471;50.932;6.934;2022-10-13T01:16:12;7.40;;;5.53;;
12812;SDS011;6471;50.932;6.934;2022-10-13T01:21:29;7.17;;;5.40;;
12812;SDS011;6471;50.932;6.934;2022-10-13T01:26:56;6.50;;;4.93;;
12812;SDS011;6471;50.932;6.934;2022-10-13T01:32:15;6.60;;;4.77;;
12812;SDS011;6471;50.932;6.934;2022-10-13T01:37:47;5.80;;;4.43;;
12812;SDS011;6471;50.932;6.934;2022-10-13T01:40:23;8.30;;;5.10;;
12812;SDS011;6471;50.932;6.934;2022-10-13T01:42:55;6.20;;;5.13;;
12812;SDS011;6471;50.932;6.934;2022-10-13T01:45:29;6.60;;;4.83;;
12812;SDS011;6471;50.932;6.934;2022-10-13T01:47:56;5.80;;;4.33;;
12812;SDS011;6471;50.932;6.934;2022-10-13T01:50:22;7.10;;;4.93;;
12812;SDS011;6471;50.932;6.934;2022-10-13T01:52:48;6.20;;;5.27;;
12812;SDS011;6471;50.932;6.934;2022-10-13T01:55:15;8.43;;;5.90;;
12812;SDS011;6471;50.932;6.934;2022-10-13T01:57:42;6.47;;;5.13;;
12812;SDS011;6471;50.932;6.934;2022-10-13T02:00:10;6.23;;;4.57;;
12812;SDS011;6471;50.932;6.934;2022-10-13T02:10:21;5.83;;;4.37;;
12812;SDS011;6471;50.932;6.934;2022-10-13T02:12:51;4.37;;;3.73;;
12812;SDS011;6471;50.932;6.934;2022-10-13T02:15:22;6.97;;;4.87;;
12812;SDS011;6471;50.932;6.934;2022-10-13T02:17:50;6.33;;;4.53;;
12812;SDS011;6471;50.932;6.934;2022-10-13T02:20:17;5.60;;;4.43;;
12812;SDS011;6471;50.932;6.934;2022-10-13T02:22:45;4.93;;;4.20;;
12812;SDS011;6471;50.932;6.934;2022-10-13T02:25:12;5.73;;;4.27;;
12812;SDS011;6471;50.932;6.934;2022-10-13T02:27:38;5.77;;;4.60;;
12812;SDS011;6471;50.932;6.934;2022-10-13T02:30:05;7.00;;;4.40;;
12812;SDS011;6471;50.932;6.934;2022-10-13T02:32:31;6.43;;;4.87;;
12812;SDS011;6471;50.932;6.934;2022-10-13T02:34:57;5.70;;;4.23;;
12812;SDS011;6471;50.932;6.934;2022-10-13T02:37:23;6.17;;;4.60;;
12812;SDS011;6471;50.932;6.934;2022-10-13T02:39:50;5.53;;;4.07;;
12812;SDS011;6471;50.932;6.934;2022-10-13T02:42:16;5.43;;;4.20;;
12812;SDS011;6471;50.932;6.934;2022-10-13T02:44:42;5.37;;;4.30;;
12812;SDS011;6471;50.932;6.934;2022-10-13T02:47:08;5.97;;;4.30;;
12812;SDS011;6471;50.932;6.934;2022-10-13T02:49:34;4.90;;;3.97;;
12812;SDS011;6471;50.932;6.934;2022-10-13T02:52:00;5.30;;;4.10;;
12812;SDS011;6471;50.932;6.934;2022-10-13T02:54:26;5.83;;;3.93;;
12812;SDS011;6471;50.932;6.934;2022-10-13T02:56:52;5.83;;;4.40;;
12812;SDS011;6471;50.932;6.934;2022-10-13T02:59:18;4.93;;;4.07;;
12812;SDS011;6471;50.932;6.934;2022-10-13T03:01:44;4.50;;;3.90;;
12812;SDS011;6471;50.932;6.934;2022-10-13T03:04:10;5.80;;;4.23;;
12812;SDS011;6471;50.932;6.934;2022-10-13T03:06:37;5.17;;;3.93;;
12812;SDS011;6471;50.932;6.934;2022-10-13T03:09:03;6.37;;;3.67;;
12812;SDS011;6471;50.932;6.934;2022-10-13T03:11:29;3.80;;;3.40;;
12812;SDS011;6471;50.932;6.934;2022-10-13T03:13:55;4.23;;;3.50;;
12812;SDS011;6471;50.932;6.934;2022-10-13T03:16:21;4.70;;;3.73;;
12812;SDS011;6471;50.932;6.934;2022-10-13T03:18:47;5.03;;;3.80;;
12812;SDS011;6471;50.932;6.934;2022-10-13T03:21:13;5.13;;;4.00;;
12812;SDS011;6471;50.932;6.934;2022-10-13T03:23:39;5.83;;;3.50;;
12812;SDS011;6471;50.932;6.934;2022-10-13T03:26:05;4.67;;;3.83;;
12812;SDS011;6471;50.932;6.934;2022-10-13T03:28:31;5.80;;;4.00;;
12812;SDS011;6471;50.932;6.934;2022-10-13T03:30:59;5.20;;;4.07;;
12812;SDS011;6471;50.932;6.934;2022-10-13T03:33:25;5.57;;;4.30;;
12812;SDS011;6471;50.932;6.934;2022-10-13T03:35:51;4.40;;;4.00;;
12812;SDS011;6471;50.932;6.934;2022-10-13T03:38:17;6.43;;;4.10;;
12812;SDS011;6471;50.932;6.934;2022-10-13T03:40:43;5.30;;;3.97;;
12812;SDS011;6471;50.932;6.934;2022-10-13T03:43:09;4.90;;;4.07;;
12812;SDS011;6471;50.932;6.934;2022-10-13T03:45:35;4.67;;;3.83;;
12812;SDS011;6471;50.932;6.934;2022-10-13T03:48:01;4.33;;;3.70;;
12812;SDS011;6471;50.932;6.934;2022-10-13T03:50:27;4.90;;;4.10;;
12812;SDS011;6471;50.932;6.934;2022-10-13T03:52:53;5.77;;;4.50;;
12812;SDS011;6471;50.932;6.934;2022-10-13T03:55:19;5.00;;;4.20;;
12812;SDS011;6471;50.932;6.934;2022-10-13T03:57:45;6.47;;;4.77;;
12812;SDS011;6471;50.932;6.934;2022-10-13T04:00:11;7.00;;;4.63;;
12812;SDS011;6471;50.932;6.934;2022-10-13T04:02:38;5.97;;;4.80;;
12812;SDS011;6471;50.932;6.934;2022-10-13T04:05:04;9.07;;;5.90;;
12812;SDS011;6471;50.932;6.934;2022-10-13T04:07:30;6.47;;;5.20;;
12812;SDS011;6471;50.932;6.934;2022-10-13T04:09:56;6.57;;;4.83;;
12812;SDS011;6471;50.932;6.934;2022-10-13T04:12:22;6.80;;;5.13;;
12812;SDS011;6471;50.932;6.934;2022-10-13T04:14:48;6.87;;;4.93;;
12812;SDS011;6471;50.932;6.934;2022-10-13T04:17:14;6.27;;;4.87;;
12812;SDS011;6471;50.932;6.934;2022-10-13T04:19:40;7.37;;;4.90;;
12812;SDS011;6471;50.932;6.934;2022-10-13T04:22:06;8.17;;;5.67;;
12812;SDS011;6471;50.932;6.934;2022-10-13T04:24:32;7.40;;;5.80;;
12812;SDS011;6471;50.932;6.934;2022-10-13T04:26:58;8.27;;;5.93;;
12812;SDS011;6471;50.932;6.934;2022-10-13T04:29:25;9.20;;;6.40;;
12812;SDS011;6471;50.932;6.934;2022-10-13T04:31:51;7.67;;;5.80;;
12812;SDS011;6471;50.932;6.934;2022-10-13T04:34:17;7.43;;;5.27;;
12812;SDS011;6471;50.932;6.934;2022-10-13T04:36:44;8.10;;;5.83;;
12812;SDS011;6471;50.932;6.934;2022-10-13T04:39:10;9.17;;;5.67;;
12812;SDS011;6471;50.932;6.934;2022-10-13T04:41:36;6.03;;;4.87;;
12812;SDS011;6471;50.932;6.934;2022-10-13T04:44:02;6.30;;;4.70;;
12812;SDS011;6471;50.932;6.934;2022-10-13T04:46:28;7.40;;;5.03;;
12812;SDS011;6471;50.932;6.934;2022-10-13T04:48:54;7.07;;;5.13;;
12812;SDS011;6471;50.932;6.934;2022-10-13T04:51:21;6.67;;;5.10;;
12812;SDS011;6471;50.932;6.934;2022-10-13T04:53:48;5.73;;;4.97;;
12812;SDS011;6471;50.932;6.934;2022-10-13T04:56:14;6.60;;;4.80;;
12812;SDS011;6471;50.932;6.934;2022-10-13T04:58:42;6.83;;;4.90;;
12812;SDS011;6471;50.932;6.934;2022-10-13T05:01:11;6.37;;;5.17;;
12812;SDS011;6471;50.932;6.934;2022-10-13T05:03:37;5.93;;;4.80;;
12812;SDS011;6471;50.932;6.934;2022-10-13T05:06:03;5.77;;;4.70;;
12812;SDS011;6471;50.932;6.934;2022-10-13T05:08:29;6.87;;;5.17;;
12812;SDS011;6471;50.932;6.934;2022-10-13T05:10:58;6.47;;;4.80;;
12812;SDS011;6471;50.932;6.934;2022-10-13T05:13:25;6.63;;;5.37;;
12812;SDS011;6471;50.932;6.934;2022-10-13T05:15:52;6.73;;;5.23;;
12812;SDS011;6471;50.932;6.934;2022-10-13T05:18:18;6.90;;;5.20;;
12812;SDS011;6471;50.932;6.934;2022-10-13T05:20:44;8.23;;;5.40;;
12812;SDS011;6471;50.932;6.934;2022-10-13T05:23:10;6.97;;;5.50;;
12812;SDS011;6471;50.932;6.934;2022-10-13T05:25:37;7.30;;;5.57;;
12812;SDS011;6471;50.932;6.934;2022-10-13T05:28:04;8.33;;;5.97;;
12812;SDS011;6471;50.932;6.934;2022-10-13T05:30:30;9.07;;;5.97;;
12812;SDS011;6471;50.932;6.934;2022-10-13T05:32:56;8.43;;;5.00;;
12812;SDS011;6471;50.932;6.934;2022-10-13T05:35:23;6.97;;;5.20;;
12812;SDS011;6471;50.932;6.934;2022-10-13T05:37:49;7.27;;;4.93;;
12812;SDS011;6471;50.932;6.934;2022-10-13T05:40:15;6.20;;;5.03;;
12812;SDS011;6471;50.932;6.934;2022-10-13T05:42:41;7.97;;;5.10;;
12812;SDS011;6471;50.932;6.934;2022-10-13T05:45:08;6.97;;;4.90;;
12812;SDS011;6471;50.932;6.934;2022-10-13T05:47:34;7.20;;;4.70;;
12812;SDS011;6471;50.932;6.934;2022-10-13T05:50:00;6.30;;;4.60;;
12812;SDS011;6471;50.932;6.934;2022-10-13T05:52:26;5.67;;;4.53;;
12812;SDS011;6471;50.932;6.934;2022-10-13T05:54:54;4.93;;;3.93;;
12812;SDS011;6471;50.932;6.934;2022-10-13T05:57:22;5.77;;;4.00;;
12812;SDS011;6471;50.932;6.934;2022-10-13T05:59:51;4.40;;;3.80;;
12812;SDS011;6471;50.932;6.934;2022-10-13T06:02:18;5.80;;;4.63;;
12812;SDS011;6471;50.932;6.934;2022-10-13T06:04:46;6.87;;;4.90;;
12812;SDS011;6471;50.932;6.934;2022-10-13T06:07:13;6.00;;;4.40;;
12812;SDS011;6471;50.932;6.934;2022-10-13T06:09:39;5.80;;;4.17;;
12812;SDS011;6471;50.932;6.934;2022-10-13T06:12:06;6.10;;;4.53;;
12812;SDS011;6471;50.932;6.934;2022-10-13T06:14:33;6.63;;;4.83;;
12812;SDS011;6471;50.932;6.934;2022-10-13T06:16:59;6.03;;;4.43;;
12812;SDS011;6471;50.932;6.934;2022-10-13T06:19:25;6.87;;;5.33;;
12812;SDS011;6471;50.932;6.934;2022-10-13T06:21:51;6.70;;;5.33;;
12812;SDS011;6471;50.932;6.934;2022-10-13T06:24:17;6.27;;;4.93;;
12812;SDS011;6471;50.932;6.934;2022-10-13T06:26:43;7.10;;;5.50;;
12812;SDS011;6471;50.932;6.934;2022-10-13T06:29:09;7.00;;;5.40;;
12812;SDS011;6471;50.932;6.934;2022-10-13T06:31:35;8.70;;;6.47;;
12812;SDS011;6471;50.932;6.934;2022-10-13T06:34:02;7.57;;;6.03;;
12812;SDS011;6471;50.932;6.934;2022-10-13T06:36:28;7.97;;;6.03;;
12812;SDS011;6471;50.932;6.934;2022-10-13T06:38:54;10.50;;;6.23;;
12812;SDS011;6471;50.932;6.934;2022-10-13T06:41:20;7.30;;;5.40;;
12812;SDS011;6471;50.932;6.934;2022-10-13T06:43:46;8.67;;;6.00;;
12812;SDS011;6471;50.932;6.934;2022-10-13T06:46:12;8.80;;;6.07;;
12812;SDS011;6471;50.932;6.934;2022-10-13T06:48:38;11.50;;;7.17;;
12812;SDS011;6471;50.932;6.934;2022-10-13T06:51:05;8.63;;;6.00;;
12812;SDS011;6471;50.932;6.934;2022-10-13T06:53:32;10.43;;;6.27;;
12812;SDS011;6471;50.932;6.934;2022-10-13T06:55:59;16.40;;;7.33;;
12812;SDS011;6471;50.932;6.934;2022-10-13T06:58:25;8.67;;;6.07;;
12812;SDS011;6471;50.932;6.934;2022-10-13T07:00:51;11.03;;;6.67;;
12812;SDS011;6471;50.932;6.934;2022-10-13T07:03:18;11.20;;;7.13;;
12812;SDS011;6471;50.932;6.934;2022-10-13T07:05:44;7.73;;;5.97;;
12812;SDS011;6471;50.932;6.934;2022-10-13T07:08:10;8.13;;;5.77;;
12812;SDS011;6471;50.932;6.934;2022-10-13T07:10:37;9.20;;;5.97;;
12812;SDS011;6471;50.932;6.934;2022-10-13T07:13:03;7.10;;;5.70;;
12812;SDS011;6471;50.932;6.934;2022-10-13T07:15:30;9.47;;;6.90;;
12812;SDS011;6471;50.932;6.934;2022-10-13T07:17:56;9.50;;;6.40;;
12812;SDS011;6471;50.932;6.934;2022-10-13T07:20:23;9.93;;;6.50;;
12812;SDS011;6471;50.932;6.934;2022-10-13T07:22:51;9.57;;;6.50;;
12812;SDS011;6471;50.932;6.934;2022-10-13T07:25:18;8.93;;;6.23;;
12812;SDS011;6471;50.932;6.934;2022-10-13T07:27:44;7.57;;;5.70;;
12812;SDS011;6471;50.932;6.934;2022-10-13T07:30:10;7.90;;;5.07;;
12812;SDS011;6471;50.932;6.934;2022-10-13T07:32:37;7.10;;;5.40;;
12812;SDS011;6471;50.932;6.934;2022-10-13T07:35:08;7.30;;;5.70;;
12812;SDS011;6471;50.932;6.934;2022-10-13T07:37:35;8.97;;;6.60;;
12812;SDS011;6471;50.932;6.934;2022-10-13T07:40:01;10.40;;;6.90;;
12812;SDS011;6471;50.932;6.934;2022-10-13T07:42:27;8.47;;;6.30;;
12812;SDS011;6471;50.932;6.934;2022-10-13T07:44:59;7.60;;;5.77;;
12812;SDS011;6471;50.932;6.934;2022-10-13T07:47:25;8.47;;;6.43;;
12812;SDS011;6471;50.932;6.934;2022-10-13T07:50:00;9.00;;;7.10;;
12812;SDS011;6471;50.932;6.934;2022-10-13T07:52:26;11.80;;;7.60;;
12812;SDS011;6471;50.932;6.934;2022-10-13T07:54:55;9.60;;;6.97;;
12812;SDS011;6471;50.932;6.934;2022-10-13T07:57:24;8.80;;;6.17;;
12812;SDS011;6471;50.932;6.934;2022-10-13T07:59:50;9.43;;;7.30;;
12812;SDS011;6471;50.932;6.934;2022-10-13T08:02:16;10.00;;;6.97;;
12812;SDS011;6471;50.932;6.934;2022-10-13T08:04:42;9.57;;;7.43;;
12812;SDS011;6471;50.932;6.934;2022-10-13T08:07:16;8.43;;;6.23;;
12812;SDS011;6471;50.932;6.934;2022-10-13T08:09:54;9.47;;;6.23;;
12812;SDS011;6471;50.932;6.934;2022-10-13T08:12:20;8.63;;;6.43;;
12812;SDS011;6471;50.932;6.934;2022-10-13T08:14:49;9.13;;;6.60;;
12812;SDS011;6471;50.932;6.934;2022-10-13T08:17:18;7.67;;;5.70;;
12812;SDS011;6471;50.932;6.934;2022-10-13T08:19:44;8.30;;;6.27;;
12812;SDS011;6471;50.932;6.934;2022-10-13T08:22:10;9.03;;;6.73;;
12812;SDS011;6471;50.932;6.934;2022-10-13T08:24:36;9.33;;;6.47;;
12812;SDS011;6471;50.932;6.934;2022-10-13T08:27:02;11.17;;;7.00;;
12812;SDS011;6471;50.932;6.934;2022-10-13T08:29:28;7.60;;;5.57;;
12812;SDS011;6471;50.932;6.934;2022-10-13T08:31:55;8.80;;;6.10;;
12812;SDS011;6471;50.932;6.934;2022-10-13T08:34:21;8.27;;;5.77;;
12812;SDS011;6471;50.932;6.934;2022-10-13T08:36:48;9.30;;;5.27;;
12812;SDS011;6471;50.932;6.934;2022-10-13T08:39:17;10.10;;;6.33;;
12812;SDS011;6471;50.932;6.934;2022-10-13T08:41:52;8.90;;;5.87;;
12812;SDS011;6471;50.932;6.934;2022-10-13T08:44:24;9.10;;;6.40;;
12812;SDS011;6471;50.932;6.934;2022-10-13T08:49:36;9.13;;;6.40;;
12812;SDS011;6471;50.932;6.934;2022-10-13T08:52:03;8.93;;;5.73;;
12812;SDS011;6471;50.932;6.934;2022-10-13T08:54:30;8.10;;;5.63;;
12812;SDS011;6471;50.932;6.934;2022-10-13T08:56:57;7.60;;;5.70;;
12812;SDS011;6471;50.932;6.934;2022-10-13T08:59:23;8.23;;;5.53;;
12812;SDS011;6471;50.932;6.934;2022-10-13T09:01:51;7.87;;;5.60;;
12812;SDS011;6471;50.932;6.934;2022-10-13T09:06:51;11.37;;;7.30;;
12812;SDS011;6471;50.932;6.934;2022-10-13T09:09:20;9.17;;;6.47;;
12812;SDS011;6471;50.932;6.934;2022-10-13T09:11:48;9.80;;;7.27;;
12812;SDS011;6471;50.932;6.934;2022-10-13T09:14:19;7.60;;;5.63;;
12812;SDS011;6471;50.932;6.934;2022-10-13T09:16:47;7.60;;;5.43;;
12812;SDS011;6471;50.932;6.934;2022-10-13T09:21:39;8.40;;;5.50;;
12812;SDS011;6471;50.932;6.934;2022-10-13T09:24:06;7.57;;;5.57;;
12812;SDS011;6471;50.932;6.934;2022-10-13T09:26:35;11.70;;;6.47;;
12812;SDS011;6471;50.932;6.934;2022-10-13T09:29:09;9.83;;;6.43;;
12812;SDS011;6471;50.932;6.934;2022-10-13T09:31:35;9.40;;;6.10;;
12812;SDS011;6471;50.932;6.934;2022-10-13T09:34:10;7.60;;;5.43;;
12812;SDS011;6471;50.932;6.934;2022-10-13T09:36:37;6.67;;;5.00;;
12812;SDS011;6471;50.932;6.934;2022-10-13T09:39:10;7.23;;;5.40;;
12812;SDS011;6471;50.932;6.934;2022-10-13T09:41:37;7.33;;;5.50;;
12812;SDS011;6471;50.932;6.934;2022-10-13T09:44:49;8.97;;;6.40;;
12812;SDS011;6471;50.932;6.934;2022-10-13T09:46:51;9.67;;;6.07;;
12812;SDS011;6471;50.932;6.934;2022-10-13T09:51:47;9.07;;;6.40;;
12812;SDS011;6471;50.932;6.934;2022-10-13T09:54:27;8.70;;;6.03;;
12812;SDS011;6471;50.932;6.934;2022-10-13T09:56:58;8.13;;;6.13;;
12812;SDS011;6471;50.932;6.934;2022-10-13T09:59:32;8.63;;;6.00;;
12812;SDS011;6471;50.932;6.934;2022-10-13T10:02:10;7.33;;;5.50;;
12812;SDS011;6471;50.932;6.934;2022-10-13T10:04:40;8.30;;;5.40;;
12812;SDS011;6471;50.932;6.934;2022-10-13T10:07:11;7.63;;;5.20;;
12812;SDS011;6471;50.932;6.934;2022-10-13T10:09:50;9.40;;;5.87;;
12812;SDS011;6471;50.932;6.934;2022-10-13T10:12:18;8.37;;;6.17;;
12812;SDS011;6471;50.932;6.934;2022-10-13T10:14:45;10.13;;;6.77;;
12812;SDS011;6471;50.932;6.934;2022-10-13T10:24:37;7.50;;;5.50;;
12812;SDS011;6471;50.932;6.934;2022-10-13T10:27:08;8.97;;;6.50;;
12812;SDS011;6471;50.932;6.934;2022-10-13T10:42:53;7.27;;;4.90;;
12812;SDS011;6471;50.932;6.934;2022-10-13T10:45:33;6.87;;;4.63;;
12812;SDS011;6471;50.932;6.934;2022-10-13T10:48:00;7.93;;;5.50;;
12812;SDS011;6471;50.932;6.934;2022-10-13T10:50:27;6.53;;;4.77;;
12812;SDS011;6471;50.932;6.934;2022-10-13T10:58:05;5.80;;;4.30;;
12812;SDS011;6471;50.932;6.934;2022-10-13T11:00:33;8.73;;;5.23;;
12812;SDS011;6471;50.932;6.934;2022-10-13T11:03:13;6.20;;;5.00;;
12812;SDS011;6471;50.932;6.934;2022-10-13T11:08:42;7.00;;;4.63;;
12812;SDS011;6471;50.932;6.934;2022-10-13T11:13:54;7.57;;;5.20;;
12812;SDS011;6471;50.932;6.934;2022-10-13T11:21:19;6.33;;;4.10;;
12812;SDS011;6471;50.932;6.934;2022-10-13T11:23:46;6.00;;;4.43;;
12812;SDS011;6471;50.932;6.934;2022-10-13T11:26:58;8.27;;;5.30;;
12812;SDS011;6471;50.932;6.934;2022-10-13T11:28:59;7.10;;;4.70;;
12812;SDS011;6471;50.932;6.934;2022-10-13T11:38:52;7.13;;;4.90;;
12812;SDS011;6471;50.932;6.934;2022-10-13T11:41:23;6.37;;;4.50;;
12812;SDS011;6471;50.932;6.934;2022-10-13T11:43:53;5.90;;;4.43;;
12812;SDS011;6471;50.932;6.934;2022-10-13T11:51:48;7.10;;;5.20;;
12812;SDS011;6471;50.932;6.934;2022-10-13T11:56:53;5.77;;;3.70;;
12812;SDS011;6471;50.932;6.934;2022-10-13T11:59:24;4.77;;;3.33;;
12812;SDS011;6471;50.932;6.934;2022-10-13T12:04:32;4.20;;;3.20;;
12812;SDS011;6471;50.932;6.934;2022-10-13T12:07:02;4.53;;;3.20;;
12812;SDS011;6471;50.932;6.934;2022-10-13T12:09:29;5.47;;;3.40;;
12812;SDS011;6471;50.932;6.934;2022-10-13T12:12:17;4.30;;;2.93;;
12812;SDS011;6471;50.932;6.934;2022-10-13T12:14:46;3.30;;;2.70;;
12812;SDS011;6471;50.932;6.934;2022-10-13T12:17:22;3.43;;;2.70;;
12812;SDS011;6471;50.932;6.934;2022-10-13T12:19:49;4.47;;;3.00;;
12812;SDS011;6471;50.932;6.934;2022-10-13T12:22:15;3.70;;;2.70;;
12812;SDS011;6471;50.932;6.934;2022-10-13T12:24:41;3.83;;;2.90;;
12812;SDS011;6471;50.932;6.934;2022-10-13T12:27:16;4.50;;;2.90;;
12812;SDS011;6471;50.932;6.934;2022-10-13T12:29:44;3.53;;;2.70;;
12812;SDS011;6471;50.932;6.934;2022-10-13T12:32:23;3.03;;;2.70;;
12812;SDS011;6471;50.932;6.934;2022-10-13T12:34:49;2.63;;;2.43;;
12812;SDS011;6471;50.932;6.934;2022-10-13T12:37:26;3.73;;;2.93;;
12812;SDS011;6471;50.932;6.934;2022-10-13T12:39:54;2.83;;;2.43;;
12812;SDS011;6471;50.932;6.934;2022-10-13T12:42:23;2.80;;;2.50;;
12812;SDS011;6471;50.932;6.934;2022-10-13T12:44:51;3.67;;;2.70;;
12812;SDS011;6471;50.932;6.934;2022-10-13T12:52:52;5.10;;;3.30;;
12812;SDS011;6471;50.932;6.934;2022-10-13T12:55:19;4.87;;;3.40;;
12812;SDS011;6471;50.932;6.934;2022-10-13T12:57:46;3.93;;;3.10;;
12812;SDS011;6471;50.932;6.934;2022-10-13T13:00:19;4.17;;;3.27;;
12812;SDS011;6471;50.932;6.934;2022-10-13T13:03:20;4.30;;;3.17;;
12812;SDS011;6471;50.932;6.934;2022-10-13T13:05:42;3.67;;;2.80;;
12812;SDS011;6471;50.932;6.934;2022-10-13T13:08:22;3.33;;;2.80;;
12812;SDS011;6471;50.932;6.934;2022-10-13T13:10:55;3.27;;;2.63;;
12812;SDS011;6471;50.932;6.934;2022-10-13T13:13:23;2.73;;;2.50;;
12812;SDS011;6471;50.932;6.934;2022-10-13T13:27:20;10.33;;;6.03;;
12812;SDS011;6471;50.932;6.934;2022-10-13T13:39:38;5.10;;;3.90;;
12812;SDS011;6471;50.932;6.934;2022-10-13T13:42:05;6.17;;;4.23;;
12812;SDS011;6471;50.932;6.934;2022-10-13T13:44:33;6.03;;;4.93;;
12812;SDS011;6471;50.932;6.934;2022-10-13T13:46:59;6.93;;;4.70;;
12812;SDS011;6471;50.932;6.934;2022-10-13T13:49:25;6.87;;;4.80;;
12812;SDS011;6471;50.932;6.934;2022-10-13T13:51:51;7.27;;;4.90;;
12812;SDS011;6471;50.932;6.934;2022-10-13T13:54:20;6.90;;;4.97;;
12812;SDS011;6471;50.932;6.934;2022-10-13T13:56:46;8.00;;;5.00;;
12812;SDS011;6471;50.932;6.934;2022-10-13T13:59:12;6.70;;;4.90;;
12812;SDS011;6471;50.932;6.934;2022-10-13T14:01:39;6.30;;;4.80;;
12812;SDS011;6471;50.932;6.934;2022-10-13T14:04:05;7.33;;;4.50;;
12812;SDS011;6471;50.932;6.934;2022-10-13T14:06:31;4.50;;;3.97;;
12812;SDS011;6471;50.932;6.934;2022-10-13T14:08:57;5.20;;;4.07;;
12812;SDS011;6471;50.932;6.934;2022-10-13T14:11:23;4.80;;;3.93;;
12812;SDS011;6471;50.932;6.934;2022-10-13T14:13:49;5.10;;;4.23;;
12812;SDS011;6471;50.932;6.934;2022-10-13T14:16:15;7.47;;;4.40;;
12812;SDS011;6471;50.932;6.934;2022-10-13T14:18:42;6.50;;;5.10;;
12812;SDS011;6471;50.932;6.934;2022-10-13T14:21:08;5.70;;;4.37;;
12812;SDS011;6471;50.932;6.934;2022-10-13T14:23:34;6.83;;;4.77;;
12812;SDS011;6471;50.932;6.934;2022-10-13T14:26:03;5.43;;;4.30;;
12812;SDS011;6471;50.932;6.934;2022-10-13T14:28:30;5.93;;;4.13;;
12812;SDS011;6471;50.932;6.934;2022-10-13T14:30:56;4.13;;;3.63;;
12812;SDS011;6471;50.932;6.934;2022-10-13T14:33:22;6.13;;;4.40;;
12812;SDS011;6471;50.932;6.934;2022-10-13T14:36:01;7.30;;;4.70;;
12812;SDS011;6471;50.932;6.934;2022-10-13T14:38:31;8.07;;;5.60;;
12812;SDS011;6471;50.932;6.934;2022-10-13T14:41:01;5.67;;;4.90;;
12812;SDS011;6471;50.932;6.934;2022-10-13T14:43:27;5.97;;;4.80;;
12812;SDS011;6471;50.932;6.934;2022-10-13T14:45:54;5.10;;;4.20;;
12812;SDS011;6471;50.932;6.934;2022-10-13T14:48:20;4.97;;;4.33;;
12812;SDS011;6471;50.932;6.934;2022-10-13T14:50:47;5.30;;;4.30;;
12812;SDS011;6471;50.932;6.934;2022-10-13T14:53:22;5.43;;;4.30;;
12812;SDS011;6471;50.932;6.934;2022-10-13T14:55:50;4.67;;;3.80;;
12812;SDS011;6471;50.932;6.934;2022-10-13T14:58:17;5.00;;;3.97;;
12812;SDS011;6471;50.932;6.934;2022-10-13T15:00:43;4.70;;;4.00;;
12812;SDS011;6471;50.932;6.934;2022-10-13T15:03:09;4.50;;;3.93;;
12812;SDS011;6471;50.932;6.934;2022-10-13T15:05:35;5.63;;;3.70;;
12812;SDS011;6471;50.932;6.934;2022-10-13T15:08:01;5.20;;;3.90;;
12812;SDS011;6471;50.932;6.934;2022-10-13T15:10:27;5.40;;;4.67;;
12812;SDS011;6471;50.932;6.934;2022-10-13T15:12:54;5.67;;;4.20;;
12812;SDS011;6471;50.932;6.934;2022-10-13T15:15:20;6.43;;;5.00;;
12812;SDS011;6471;50.932;6.934;2022-10-13T15:17:46;5.07;;;4.13;;
12812;SDS011;6471;50.932;6.934;2022-10-13T15:20:12;5.43;;;4.17;;
12812;SDS011;6471;50.932;6.934;2022-10-13T15:22:38;5.30;;;4.43;;
12812;SDS011;6471;50.932;6.934;2022-10-13T15:25:05;5.33;;;4.30;;
12812;SDS011;6471;50.932;6.934;2022-10-13T15:27:33;6.43;;;4.37;;
12812;SDS011;6471;50.932;6.934;2022-10-13T15:30:00;5.57;;;4.40;;
12812;SDS011;6471;50.932;6.934;2022-10-13T15:32:26;5.47;;;4.47;;
12812;SDS011;6471;50.932;6.934;2022-10-13T15:34:52;6.70;;;5.10;;
12812;SDS011;6471;50.932;6.934;2022-10-13T15:37:18;7.07;;;4.70;;
12812;SDS011;6471;50.932;6.934;2022-10-13T15:39:44;8.00;;;4.80;;
12812;SDS011;6471;50.932;6.934;2022-10-13T15:42:10;7.00;;;4.97;;
12812;SDS011;6471;50.932;6.934;2022-10-13T15:44:37;5.77;;;4.47;;
12812;SDS011;6471;50.932;6.934;2022-10-13T15:47:03;5.70;;;4.77;;
12812;SDS011;6471;50.932;6.934;2022-10-13T15:49:29;10.43;;;5.93;;
12812;SDS011;6471;50.932;6.934;2022-10-13T15:51:55;8.17;;;5.20;;
12812;SDS011;6471;50.932;6.934;2022-10-13T15:54:21;7.90;;;5.77;;
12812;SDS011;6471;50.932;6.934;2022-10-13T15:56:47;7.13;;;5.33;;
12812;SDS011;6471;50.932;6.934;2022-10-13T15:59:14;5.87;;;5.00;;
12812;SDS011;6471;50.932;6.934;2022-10-13T16:01:40;6.00;;;4.70;;
12812;SDS011;6471;50.932;6.934;2022-10-13T16:04:06;6.70;;;4.97;;
12812;SDS011;6471;50.932;6.934;2022-10-13T16:06:32;6.10;;;5.00;;
12812;SDS011;6471;50.932;6.934;2022-10-13T16:08:58;6.37;;;4.70;;
12812;SDS011;6471;50.932;6.934;2022-10-13T16:11:24;6.40;;;4.57;;
12812;SDS011;6471;50.932;6.934;2022-10-13T16:13:51;7.50;;;5.37;;
12812;SDS011;6471;50.932;6.934;2022-10-13T16:16:17;6.80;;;5.00;;
12812;SDS011;6471;50.932;6.934;2022-10-13T16:18:44;7.90;;;5.70;;
12812;SDS011;6471;50.932;6.934;2022-10-13T16:21:12;7.27;;;5.60;;
12812;SDS011;6471;50.932;6.934;2022-10-13T16:23:38;9.30;;;6.67;;
12812;SDS011;6471;50.932;6.934;2022-10-13T16:26:05;10.33;;;7.37;;
12812;SDS011;6471;50.932;6.934;2022-10-13T16:28:31;8.50;;;6.03;;
12812;SDS011;6471;50.932;6.934;2022-10-13T16:31:01;7.30;;;5.43;;
12812;SDS011;6471;50.932;6.934;2022-10-13T16:33:28;9.27;;;6.40;;
12812;SDS011;6471;50.932;6.934;2022-10-13T16:36:00;9.27;;;6.30;;
12812;SDS011;6471;50.932;6.934;2022-10-13T16:38:27;6.83;;;5.60;;
12812;SDS011;6471;50.932;6.934;2022-10-13T16:40:53;6.80;;;5.47;;
12812;SDS011;6471;50.932;6.934;2022-10-13T16:43:19;6.23;;;4.90;;
12812;SDS011;6471;50.932;6.934;2022-10-13T16:45:53;4.90;;;4.40;;
12812;SDS011;6471;50.932;6.934;2022-10-13T16:48:20;4.53;;;3.73;;
12812;SDS011;6471;50.932;6.934;2022-10-13T16:50:46;6.17;;;4.20;;
12812;SDS011;6471;50.932;6.934;2022-10-13T16:53:12;5.20;;;4.40;;
12812;SDS011;6471;50.932;6.934;2022-10-13T16:55:38;6.37;;;4.40;;
12812;SDS011;6471;50.932;6.934;2022-10-13T16:58:04;5.27;;;4.30;;